Zero, Nebraska
Current Conditions -  °F | °C
As of 10:53 PM on Saturday 25 Oct 2014 (Local Time) from KHSI Reporting Station
Clear Clear  
Wind Chill: 60°   Ceiling: Unl
Heat Index: 60°   Visibility: 10mi
Dew Point: 42°   Wind: 12mph
Humidity: 51%   Direction: 90°E
Pressure: 29.97"   Gusts: NA
Location:  40.4373°N, 98.4396°W
Report Text: KHSI 260353Z AUTO 09010KT 10SM CLR 16/06 A2997 RMK AO2 SLP143 T01560056
Loading
Personal Weather Stations






























Interactive Weather Map
Tropical Storm Tracking
New forecast layout! Learn more

10-Day Weather Forecast

Advertisements
Track Severe Weather on mobile